Time;durP1;ratioP1;P1;durP2;ratioP2;P2;SDS_P1;SDS_P2;PMS_P1;PMS_P2;Temp;Humidity;BMP_temperature;BMP_pressure;BME280_temperature;BME280_humidity;BME280_pressure;Samples;Min_cycle;Max_cycle;Signal;HPM_P1;HPM_P2
2023/05/06 00:00:16;;;;;;;7.80;5.63;;;;;;;11.57;100.00;95977.19;1022563;29;20046;-70
2023/05/06 00:00:46;;;;;;;8.63;5.90;;;;;;;11.63;100.00;95980.59;1019126;29;20067;-72
2023/05/06 00:01:17;;;;;;;7.88;5.20;;;;;;;11.50;100.00;95956.44;1014601;29;20808;-71
2023/05/06 00:01:47;;;;;;;7.13;5.53;;;;;;;11.61;100.00;95974.81;1018711;28;20027;-72
2023/05/06 00:02:18;;;;;;;9.38;5.88;;;;;;;11.59;100.00;95980.31;1022371;28;20020;-72
2023/05/06 00:02:48;;;;;;;10.18;5.38;;;;;;;11.62;100.00;95982.44;1022743;28;20039;-72
2023/05/06 00:03:19;;;;;;;10.18;6.60;;;;;;;11.62;100.00;95981.66;1022629;28;20450;-71
2023/05/06 00:03:49;;;;;;;9.52;5.50;;;;;;;11.61;100.00;95982.72;1022676;28;20043;-71
2023/05/06 00:04:20;;;;;;;12.60;6.13;;;;;;;11.58;100.00;95984.00;1022591;28;20035;-72
2023/05/06 00:04:51;;;;;;;9.00;5.80;;;;;;;11.61;100.00;95983.50;1026501;28;20058;-72
2023/05/06 00:05:21;;;;;;;9.07;5.80;;;;;;;11.60;100.00;95981.91;1027287;28;20035;-71
2023/05/06 00:05:52;;;;;;;7.40;5.32;;;;;;;11.63;100.00;95975.34;1031073;28;20038;-72
2023/05/06 00:06:22;;;;;;;6.95;5.55;;;;;;;11.63;100.00;95970.88;1026921;28;20034;-71
2023/05/06 00:06:53;;;;;;;10.40;5.78;;;;;;;11.60;100.00;95981.91;1023074;29;20047;-72
2023/05/06 00:07:23;;;;;;;7.65;6.15;;;;;;;11.62;100.00;95985.06;1018640;29;22139;-71
2023/05/06 00:07:54;;;;;;;7.70;5.18;;;;;;;11.61;100.00;95974.81;1018884;29;20027;-71
2023/05/06 00:08:25;;;;;;;7.50;5.20;;;;;;;11.56;100.00;95965.88;1022855;28;20035;-72
2023/05/06 00:08:55;;;;;;;7.47;5.80;;;;;;;11.54;100.00;95964.56;1025867;28;20042;-69
2023/05/06 00:09:26;;;;;;;8.00;5.80;;;;;;;11.59;100.00;95969.03;1026502;28;20022;-72
2023/05/06 00:09:57;;;;;;;8.75;6.05;;;;;;;11.59;100.00;95977.69;1026378;28;20094;-72
2023/05/06 00:10:27;;;;;;;7.28;5.68;;;;;;;11.47;100.00;95941.19;1018594;29;20073;-72
2023/05/06 00:10:58;;;;;;;6.93;5.38;;;;;;;11.57;100.00;95961.41;1018713;29;20032;-72
2023/05/06 00:11:28;;;;;;;6.95;5.40;;;;;;;11.63;100.00;95964.81;1014773;29;20047;-71
2023/05/06 00:11:59;;;;;;;10.65;6.00;;;;;;;11.63;100.00;95962.19;1014930;29;20490;-71
2023/05/06 00:12:29;;;;;;;10.27;6.07;;;;;;;11.64;100.00;95963.78;1016964;29;20028;-71
2023/05/06 00:12:59;;;;;;;10.68;6.28;;;;;;;11.65;100.00;95963.50;1014293;29;20494;-71
2023/05/06 00:13:30;;;;;;;7.88;5.82;;;;;;;11.66;100.00;95964.28;1014882;29;20036;-72
2023/05/06 00:14:00;;;;;;;10.25;6.00;;;;;;;11.68;100.00;95963.00;1018856;28;20036;-70
2023/05/06 00:14:31;;;;;;;7.90;5.75;;;;;;;11.61;100.00;95957.22;1022270;28;20035;-72
2023/05/06 00:15:02;;;;;;;7.95;5.22;;;;;;;11.61;100.00;95966.94;1018834;29;20769;-71
2023/05/06 00:15:33;;;;;;;10.75;5.80;;;;;;;11.60;100.00;95960.88;1018610;29;20027;-72
2023/05/06 00:16:04;;;;;;;7.40;5.50;;;;;;;11.62;100.00;95955.38;1021501;28;20031;-71
2023/05/06 00:16:34;;;;;;;7.97;5.80;;;;;;;11.55;100.00;95948.53;1026654;28;20851;-72
2023/05/06 00:17:05;;;;;;;9.75;5.88;;;;;;;11.62;100.00;95958.78;1022727;28;20405;-71
2023/05/06 00:17:35;;;;;;;8.88;5.07;;;;;;;11.59;100.00;95948.00;1021851;29;20580;-72
2023/05/06 00:18:06;;;;;;;9.98;5.82;;;;;;;11.59;100.00;95953.25;1021388;28;20030;-72
2023/05/06 00:18:36;;;;;;;9.63;5.97;;;;;;;11.62;100.00;95958.00;1021783;28;20032;-71
2023/05/06 00:19:07;;;;;;;8.20;5.75;;;;;;;11.60;100.00;95952.97;1029606;28;20495;-72
2023/05/06 00:19:37;;;;;;;8.25;5.55;;;;;;;11.63;100.00;95955.09;1024478;28;20031;-72
2023/05/06 00:20:09;;;;;;;11.25;6.05;;;;;;;11.63;100.00;95956.94;1026726;28;20026;-71
2023/05/06 00:20:40;;;;;;;9.90;5.72;;;;;;;11.62;100.00;95958.00;1024200;28;20031;-71
2023/05/06 00:21:11;;;;;;;8.45;5.28;;;;;;;11.60;100.00;95960.09;1018800;29;20075;-70
2023/05/06 00:21:41;;;;;;;11.32;6.38;;;;;;;11.57;100.00;95961.41;1018904;29;20087;-71
2023/05/06 00:22:12;;;;;;;9.20;6.10;;;;;;;11.57;100.00;95956.94;1018236;29;20032;-71
2023/05/06 00:22:42;;;;;;;11.73;5.80;;;;;;;11.57;100.00;95954.31;1022258;29;20034;-69
2023/05/06 00:23:12;;;;;;;10.18;5.75;;;;;;;11.60;100.00;95958.25;1018506;29;20031;-72
2023/05/06 00:23:43;;;;;;;8.07;5.38;;;;;;;11.63;100.00;95957.72;1018507;29;20031;-72
2023/05/06 00:24:13;;;;;;;18.30;5.93;;;;;;;11.65;100.00;95957.47;1022435;28;20034;-71
2023/05/06 00:24:44;;;;;;;7.57;5.57;;;;;;;11.63;100.00;95962.19;1019400;28;20500;-71
2023/05/06 00:25:14;;;;;;;10.55;6.07;;;;;;;11.64;100.00;95955.91;1026439;28;20067;-71
2023/05/06 00:25:45;;;;;;;7.32;5.70;;;;;;;11.65;100.00;95957.47;1026607;28;20023;-72
2023/05/06 00:26:15;;;;;;;8.75;6.00;;;;;;;11.64;100.00;95959.31;1026419;28;20034;-73
2023/05/06 00:26:46;;;;;;;7.88;6.20;;;;;;;11.66;100.00;95966.94;1034644;28;20022;-71
2023/05/06 00:27:16;;;;;;;7.28;5.85;;;;;;;11.64;100.00;95961.16;1034496;28;20030;-71
2023/05/06 00:27:47;;;;;;;8.45;6.00;;;;;;;11.65;100.00;95965.34;1036402;28;20037;-72
2023/05/06 00:28:17;;;;;;;10.80;6.55;;;;;;;11.65;100.00;95963.50;1029690;28;20222;-71
2023/05/06 00:28:48;;;;;;;8.40;6.38;;;;;;;11.61;100.00;95961.69;1030036;28;20029;-71
2023/05/06 00:29:18;;;;;;;7.53;5.70;;;;;;;11.60;100.00;95960.88;1026209;28;20278;-71
2023/05/06 00:29:49;;;;;;;7.55;5.85;;;;;;;11.59;100.00;95958.53;1025065;28;20032;-70
2023/05/06 00:30:19;;;;;;;8.10;5.68;;;;;;;11.60;100.00;95960.09;1034413;28;20022;-70
2023/05/06 00:30:50;;;;;;;9.13;6.10;;;;;;;11.61;100.00;95957.22;1034056;28;20029;-72
2023/05/06 00:31:20;;;;;;;9.25;6.10;;;;;;;11.62;100.00;95960.63;1033904;28;20025;-70
2023/05/06 00:31:50;;;;;;;7.35;5.68;;;;;;;11.56;100.00;95963.25;1026410;28;20027;-70
2023/05/06 00:32:21;;;;;;;9.43;6.07;;;;;;;11.62;100.00;95963.25;1026280;28;20037;-71
2023/05/06 00:32:51;;;;;;;8.40;6.20;;;;;;;11.59;100.00;95969.03;1022634;28;20437;-72
2023/05/06 00:33:22;;;;;;;11.23;6.72;;;;;;;11.60;100.00;95962.72;1022425;28;20456;-70
2023/05/06 00:33:52;;;;;;;9.27;6.20;;;;;;;11.53;100.00;95960.34;1022551;28;20027;-70
2023/05/06 00:34:23;;;;;;;8.85;6.13;;;;;;;11.57;100.00;95959.59;1022405;28;20082;-71
2023/05/06 00:34:53;;;;;;;9.68;5.70;;;;;;;11.60;100.00;95965.34;1026303;28;20110;-71
2023/05/06 00:35:24;;;;;;;7.57;6.32;;;;;;;11.53;100.00;95950.63;1030485;28;20392;-70
2023/05/06 00:35:54;;;;;;;9.95;5.90;;;;;;;11.56;100.00;95963.25;1022650;28;20022;-70
2023/05/06 00:36:25;;;;;;;9.07;6.00;;;;;;;11.51;100.00;95951.97;1023721;28;20521;-69
2023/05/06 00:36:55;;;;;;;8.00;5.85;;;;;;;11.52;100.00;95953.53;1022413;29;20374;-70
2023/05/06 00:37:26;;;;;;;9.45;6.10;;;;;;;11.52;100.00;95951.69;1022562;28;20027;-71
2023/05/06 00:37:57;;;;;;;8.55;6.00;;;;;;;11.51;100.00;95955.38;1030391;28;20026;-70
2023/05/06 00:38:27;;;;;;;9.73;6.32;;;;;;;11.49;100.00;95954.84;1025724;28;20643;-71
2023/05/06 00:38:58;;;;;;;7.80;6.30;;;;;;;11.48;100.00;95953.25;1029832;28;20026;-72
2023/05/06 00:39:28;;;;;;;9.88;6.25;;;;;;;11.49;100.00;95952.19;1024314;28;20465;-71
2023/05/06 00:39:59;;;;;;;8.27;5.85;;;;;;;11.47;100.00;95951.69;1022556;28;20664;-71
2023/05/06 00:40:29;;;;;;;10.27;6.15;;;;;;;11.48;100.00;95953.25;1026384;28;20039;-70
2023/05/06 00:41:00;;;;;;;7.63;6.22;;;;;;;11.46;100.00;95950.09;1026438;28;20401;-71
2023/05/06 00:41:31;;;;;;;12.60;6.85;;;;;;;11.45;100.00;95948.53;1029499;28;20105;-71
2023/05/06 00:42:02;;;;;;;9.18;6.60;;;;;;;11.39;100.00;95949.56;1022661;29;20129;-72
2023/05/06 00:42:32;;;;;;;13.20;7.00;;;;;;;11.31;100.00;95944.84;1022121;29;20795;-71
2023/05/06 00:43:03;;;;;;;9.93;6.85;;;;;;;11.35;100.00;95945.91;1026205;28;20790;-72
2023/05/06 00:43:33;;;;;;;11.82;7.20;;;;;;;11.37;100.00;95937.75;1025745;28;20062;-71
2023/05/06 00:44:04;;;;;;;10.25;7.13;;;;;;;11.31;100.00;95942.22;1022478;29;20031;-73
2023/05/06 00:44:35;;;;;;;9.25;6.85;;;;;;;11.35;100.00;95948.53;1025925;28;20027;-70
2023/05/06 00:45:05;;;;;;;12.93;6.80;;;;;;;11.36;100.00;95949.31;1026241;28;20022;-71
2023/05/06 00:45:36;;;;;;;8.55;6.63;;;;;;;11.32;100.00;95952.47;1026585;28;20034;-72
2023/05/06 00:46:07;;;;;;;10.77;7.38;;;;;;;11.28;100.00;95937.50;1026045;28;20068;-72
2023/05/06 00:46:37;;;;;;;13.32;6.80;;;;;;;11.30;100.00;95943.25;1022256;28;20106;-73
2023/05/06 00:47:08;;;;;;;10.18;7.05;;;;;;;11.31;100.00;95945.63;1019931;29;20024;-72
2023/05/06 00:47:39;;;;;;;7.55;6.20;;;;;;;11.30;100.00;95948.50;1024364;28;20030;-71
2023/05/06 00:48:09;;;;;;;11.30;7.15;;;;;;;11.23;100.00;95940.91;1017075;29;20051;-72
2023/05/06 00:48:40;;;;;;;9.57;6.80;;;;;;;11.28;100.00;95948.78;1024116;28;20032;-72
2023/05/06 00:49:11;;;;;;;10.80;6.55;;;;;;;11.28;100.00;95950.63;1018588;29;20785;-71
2023/05/06 00:49:41;;;;;;;11.40;7.22;;;;;;;11.22;100.00;95946.41;1021214;28;20048;-71
2023/05/06 00:50:12;;;;;;;13.15;7.15;;;;;;;11.21;100.00;95943.00;1030479;28;20459;-72
2023/05/06 00:50:42;;;;;;;9.82;6.97;;;;;;;11.22;100.00;95944.56;1027146;28;20081;-72
2023/05/06 00:51:12;;;;;;;11.13;7.00;;;;;;;11.20;100.00;95944.06;1022457;28;20042;-71
2023/05/06 00:51:43;;;;;;;9.48;7.07;;;;;;;11.19;100.00;95947.72;1022605;28;20055;-71
2023/05/06 00:52:14;;;;;;;11.65;6.88;;;;;;;11.12;100.00;95938.53;1026293;28;20022;-71
2023/05/06 00:52:45;;;;;;;15.38;7.55;;;;;;;11.09;100.00;95940.59;1018695;29;20437;-72
2023/05/06 00:53:19;;;;;;;9.15;7.15;;;;;;;11.14;100.00;95944.31;1022606;28;20122;-70
2023/05/06 00:53:50;;;;;;;12.65;6.90;;;;;;;11.08;100.00;95933.00;1027124;28;20050;-72
2023/05/06 00:54:20;;;;;;;10.32;7.25;;;;;;;11.04;100.00;95940.63;1022332;29;20082;-71
2023/05/06 00:54:51;;;;;;;9.65;7.78;;;;;;;11.10;100.00;95946.66;1018321;29;20028;-71
2023/05/06 00:55:21;;;;;;;9.50;6.68;;;;;;;11.04;100.00;95935.34;1018384;29;20027;-71
2023/05/06 00:55:52;;;;;;;11.63;7.40;;;;;;;11.08;100.00;95946.91;1018616;29;20426;-71
2023/05/06 00:56:22;;;;;;;11.07;7.63;;;;;;;11.04;100.00;95939.81;1018555;28;20023;-73
2023/05/06 00:56:53;;;;;;;12.75;7.18;;;;;;;11.09;100.00;95950.31;1025013;28;20088;-72
2023/05/06 00:57:23;;;;;;;11.15;7.40;;;;;;;11.08;100.00;95946.91;1028920;28;20109;-70
2023/05/06 00:57:54;;;;;;;9.45;7.63;;;;;;;11.07;100.00;95947.97;1034508;28;20041;-71
2023/05/06 00:58:24;;;;;;;12.57;7.45;;;;;;;11.03;100.00;95940.84;1034560;28;20503;-72
2023/05/06 00:58:55;;;;;;;10.15;7.50;;;;;;;11.09;100.00;95951.09;1030877;28;20052;-70
2023/05/06 00:59:25;;;;;;;9.65;6.70;;;;;;;11.09;100.00;95948.47;1030414;28;20606;-72
2023/05/06 00:59:56;;;;;;;11.27;7.68;;;;;;;11.09;100.00;95948.47;1030544;28;20026;-71
2023/05/06 01:00:26;;;;;;;12.00;7.63;;;;;;;11.03;100.00;95936.41;1033859;28;20484;-71
2023/05/06 01:00:57;;;;;;;12.73;7.97;;;;;;;11.06;100.00;95951.63;1030329;28;20064;-71
2023/05/06 01:01:29;;;;;;;14.52;8.48;;;;;;;11.06;100.00;95949.00;1022817;28;20807;-71
2023/05/06 01:02:00;;;;;;;10.35;7.47;;;;;;;11.07;100.00;95950.59;1030467;28;20030;-69
2023/05/06 01:02:30;;;;;;;11.82;7.68;;;;;;;11.01;100.00;95943.75;1028769;28;20266;-71
2023/05/06 01:03:01;;;;;;;10.48;7.50;;;;;;;11.09;100.00;95945.84;1030153;28;20026;-71
2023/05/06 01:03:31;;;;;;;9.98;7.07;;;;;;;11.07;100.00;95947.97;1022223;29;20071;-71
2023/05/06 01:04:02;;;;;;;9.13;7.25;;;;;;;11.09;100.00;95945.06;1026455;28;20516;-71
2023/05/06 01:04:32;;;;;;;11.93;6.82;;;;;;;11.12;100.00;95949.03;1030108;28;20117;-71
2023/05/06 01:05:03;;;;;;;8.60;7.18;;;;;;;11.12;100.00;95949.03;1026310;28;20031;-71
2023/05/06 01:05:39;;;;;;;9.30;7.32;;;;;;;11.10;100.00;95951.91;1018353;29;20050;-71
2023/05/06 01:06:36;;;;;;;11.90;7.15;;;;;;;11.09;100.00;95948.47;1014339;29;20023;-71
2023/05/06 01:07:09;;;;;;;10.23;6.47;;;;;;;11.11;100.00;95950.09;1018549;29;20033;-73
2023/05/06 01:07:45;;;;;;;8.60;6.70;;;;;;;11.09;100.00;95950.31;1022191;29;20278;-68
2023/05/06 01:08:20;;;;;;;8.80;7.00;;;;;;;11.08;100.00;95943.50;1026466;28;20026;-70
2023/05/06 01:08:59;;;;;;;12.77;7.28;;;;;;;11.06;100.00;95946.38;1020007;29;20784;-71
2023/05/06 01:09:41;;;;;;;8.65;6.82;;;;;;;11.06;100.00;95941.13;1022220;29;20286;-71
2023/05/06 01:10:17;;;;;;;8.77;6.63;;;;;;;11.05;100.00;95947.44;1022356;29;21033;-71
2023/05/06 01:10:52;;;;;;;9.43;6.97;;;;;;;11.01;100.00;95942.97;1026352;28;20790;-72
2023/05/06 01:11:34;;;;;;;11.15;7.05;;;;;;;10.99;100.00;95940.59;1021384;29;20027;-68
2023/05/06 01:12:08;;;;;;;9.20;6.70;;;;;;;11.02;100.00;95947.94;1021117;29;20262;-69
2023/05/06 01:12:47;;;;;;;11.43;7.22;;;;;;;11.04;100.00;95937.97;1014297;29;20280;-72
2023/05/06 01:13:34;;;;;;;9.98;7.22;;;;;;;11.02;100.00;95940.06;1018456;29;20317;-72
2023/05/06 01:14:09;;;;;;;11.55;7.32;;;;;;;10.98;100.00;95932.97;1018509;29;20680;-70
2023/05/06 01:14:48;;;;;;;11.25;7.05;;;;;;;11.03;100.00;95940.84;1025823;28;20815;-72
2023/05/06 01:15:37;;;;;;;11.13;7.15;;;;;;;11.04;100.00;95947.69;1022174;29;20267;-71
2023/05/06 01:16:07;;;;;;;9.63;6.72;;;;;;;11.05;100.00;95947.44;1022110;29;20286;-72
2023/05/06 01:16:38;;;;;;;11.88;7.40;;;;;;;11.00;100.00;95936.94;1022413;29;20282;-71
2023/05/06 01:17:10;;;;;;;10.65;7.38;;;;;;;10.99;100.00;95931.94;1022345;29;20102;-73
2023/05/06 01:17:45;;;;;;;12.05;7.22;;;;;;;11.04;100.00;95943.25;1018257;29;20503;-70
2023/05/06 01:18:16;;;;;;;9.52;7.03;;;;;;;11.01;100.00;95933.25;1018333;29;20279;-72
2023/05/06 01:18:47;;;;;;;11.63;8.50;;;;;;;11.06;100.00;95942.97;1013902;29;20020;-71
2023/05/06 01:19:37;;;;;;;10.48;7.57;;;;;;;11.01;100.00;95933.25;1018292;29;20272;-70
2023/05/06 01:20:10;;;;;;;10.02;6.32;;;;;;;11.08;100.00;95940.88;1018447;29;20122;-72
2023/05/06 01:20:42;;;;;;;9.18;6.32;;;;;;;11.07;100.00;95941.94;1018143;29;20074;-71
2023/05/06 01:21:12;;;;;;;10.75;7.13;;;;;;;11.11;100.00;95944.81;1020841;28;20027;-71
2023/05/06 01:21:43;;;;;;;10.02;7.13;;;;;;;11.13;100.00;95945.34;1030278;28;20034;-71
2023/05/06 01:22:14;;;;;;;11.90;7.53;;;;;;;11.15;100.00;95944.03;1022259;29;20433;-73
2023/05/06 01:22:45;;;;;;;11.02;7.45;;;;;;;11.13;100.00;95937.47;1018041;29;20450;-72
2023/05/06 01:23:15;;;;;;;13.15;7.70;;;;;;;11.14;100.00;95941.69;1018697;29;20023;-72
2023/05/06 01:23:54;;;;;;;12.10;7.63;;;;;;;11.17;100.00;95941.94;1022197;29;20066;-72
2023/05/06 01:24:39;;;;;;;9.00;7.03;;;;;;;11.17;100.00;95936.69;1013928;29;20067;-71
2023/05/06 01:25:20;;;;;;;9.82;7.20;;;;;;;11.12;100.00;95928.78;1017592;29;20279;-72
2023/05/06 01:25:50;;;;;;;11.50;7.25;;;;;;;11.15;100.00;95943.25;1022283;29;20258;-69
2023/05/06 01:26:21;;;;;;;14.05;7.68;;;;;;;11.14;100.00;95931.97;1029054;28;20038;-71
2023/05/06 01:26:52;;;;;;;10.93;7.32;;;;;;;11.15;100.00;95935.38;1022139;28;20051;-71
2023/05/06 01:27:23;;;;;;;12.63;7.20;;;;;;;11.17;100.00;95939.31;1022885;28;20429;-71
2023/05/06 01:27:54;;;;;;;13.38;7.18;;;;;;;11.18;100.00;95934.84;1026138;28;20039;-72
2023/05/06 01:28:24;;;;;;;11.05;7.50;;;;;;;11.21;100.00;95936.97;1018692;28;20032;-71
2023/05/06 01:28:55;;;;;;;10.88;7.75;;;;;;;11.21;100.00;95940.38;1021295;29;20433;-71
2023/05/06 01:29:26;;;;;;;11.68;7.78;;;;;;;11.22;100.00;95935.91;1022146;29;20023;-71
2023/05/06 01:29:56;;;;;;;13.30;7.57;;;;;;;11.20;100.00;95935.38;1022173;29;20019;-71
2023/05/06 01:30:29;;;;;;;12.35;8.07;;;;;;;11.23;100.00;95940.09;1022397;28;20513;-71
2023/05/06 01:31:05;;;;;;;8.10;6.95;;;;;;;11.23;100.00;95938.28;1022490;28;20023;-71
2023/05/06 01:31:40;;;;;;;9.57;7.43;;;;;;;11.23;100.00;95934.84;1019141;29;20119;-72
2023/05/06 01:32:26;;;;;;;10.05;7.40;;;;;;;11.24;100.00;95931.19;1022352;29;20767;-69
2023/05/06 01:33:03;;;;;;;9.88;7.20;;;;;;;11.20;100.00;95932.75;1026044;28;20038;-71
2023/05/06 01:33:38;;;;;;;12.27;7.32;;;;;;;11.23;100.00;95935.66;1022168;29;20318;-71
2023/05/06 01:34:20;;;;;;;9.30;6.90;;;;;;;11.24;100.00;95931.19;1021999;29;20322;-71
2023/05/06 01:34:59;;;;;;;11.20;6.68;;;;;;;11.23;100.00;95938.28;1017740;29;20350;-71
2023/05/06 01:35:51;;;;;;;9.52;7.05;;;;;;;11.26;100.00;95934.31;1024739;28;20117;-72
2023/05/06 01:36:52;;;;;;;11.13;7.35;;;;;;;11.26;100.00;95939.56;1030048;28;20254;-72
2023/05/06 01:37:41;;;;;;;10.25;6.55;;;;;;;11.21;100.00;95931.72;1025875;28;20054;-70
2023/05/06 01:38:45;;;;;;;11.88;7.72;;;;;;;11.26;100.00;95936.94;1030193;28;20519;-70
2023/05/06 01:39:17;;;;;;;9.13;6.25;;;;;;;11.27;100.00;95933.28;1030132;28;20014;-72
2023/05/06 01:39:48;;;;;;;10.88;6.93;;;;;;;11.25;100.00;95932.75;1030840;28;20265;-72
2023/05/06 01:40:18;;;;;;;10.20;7.60;;;;;;;11.22;100.00;95923.56;1026356;28;20317;-71
2023/05/06 01:40:53;;;;;;;10.57;7.72;;;;;;;11.27;100.00;95941.19;1018252;29;20039;-71
2023/05/06 01:41:23;;;;;;;9.00;7.70;;;;;;;11.24;100.00;95928.56;1022158;29;20635;-72
2023/05/06 01:41:56;;;;;;;10.70;7.82;;;;;;;11.27;100.00;95936.72;1025851;28;20262;-71
2023/05/06 01:42:26;;;;;;;10.45;7.93;;;;;;;11.26;100.00;95921.19;1025754;28;20038;-71
2023/05/06 01:42:56;;;;;;;10.52;7.82;;;;;;;11.24;100.00;95924.09;1017779;29;20406;-71
2023/05/06 01:43:29;;;;;;;11.70;8.20;;;;;;;11.25;100.00;95932.75;1021278;29;20039;-71
2023/05/06 01:44:00;;;;;;;11.25;7.90;;;;;;;11.28;100.00;95921.72;1014226;29;20084;-71
2023/05/06 01:44:32;;;;;;;11.60;7.93;;;;;;;11.28;100.00;95934.88;1018002;29;20327;-71
2023/05/06 01:45:03;;;;;;;12.70;7.85;;;;;;;11.23;100.00;95926.97;1022147;29;20023;-71
2023/05/06 01:45:34;;;;;;;12.15;7.60;;;;;;;11.29;100.00;95925.94;1021898;29;20267;-72
2023/05/06 01:46:05;;;;;;;12.73;8.05;;;;;;;11.30;100.00;95932.75;1022256;29;20023;-71
2023/05/06 01:46:35;;;;;;;14.20;8.57;;;;;;;11.33;100.00;95924.34;1022175;29;20034;-71
2023/05/06 01:47:06;;;;;;;10.98;8.15;;;;;;;11.28;100.00;95926.97;1022073;29;20570;-71
2023/05/06 01:47:37;;;;;;;11.90;7.72;;;;;;;11.32;100.00;95930.66;1018266;29;20106;-70
2023/05/06 01:48:07;;;;;;;12.23;8.40;;;;;;;11.31;100.00;95924.63;1026352;28;20019;-71
2023/05/06 01:48:38;;;;;;;12.32;8.57;;;;;;;11.33;100.00;95924.34;1017633;29;20035;-72
2023/05/06 01:49:10;;;;;;;13.50;8.35;;;;;;;11.30;100.00;95925.69;1021010;29;20038;-72
2023/05/06 01:49:40;;;;;;;9.88;7.85;;;;;;;11.33;100.00;95924.34;1018142;29;20061;-71
2023/05/06 01:50:11;;;;;;;13.07;8.32;;;;;;;11.31;100.00;95934.34;1022105;29;20512;-71
2023/05/06 01:50:41;;;;;;;12.27;8.88;;;;;;;11.29;100.00;95928.56;1018387;29;20499;-72
2023/05/06 01:51:12;;;;;;;11.82;8.75;;;;;;;11.31;100.00;95921.22;1022171;29;20042;-71
2023/05/06 01:51:49;;;;;;;14.20;7.95;;;;;;;11.31;100.00;95927.25;1021889;28;20031;-71
2023/05/06 01:52:20;;;;;;;11.15;7.90;;;;;;;11.25;100.00;95917.78;1025174;28;20830;-71
2023/05/06 01:53:00;;;;;;;13.82;9.07;;;;;;;11.29;100.00;95923.28;1027138;28;20034;-71
2023/05/06 01:53:31;;;;;;;10.20;7.00;;;;;;;11.27;100.00;95922.78;1022162;29;20039;-72
2023/05/06 01:54:02;;;;;;;10.57;7.68;;;;;;;11.19;100.00;95923.28;1023717;28;20031;-71
2023/05/06 01:54:33;;;;;;;12.85;8.15;;;;;;;11.22;100.00;95928.81;1023241;28;20035;-72
2023/05/06 01:55:04;;;;;;;10.55;7.18;;;;;;;11.19;100.00;95931.16;1014799;29;20060;-70
2023/05/06 01:55:34;;;;;;;11.75;7.18;;;;;;;11.19;100.00;95931.16;1021929;29;20027;-72
2023/05/06 01:56:05;;;;;;;9.90;6.85;;;;;;;11.16;100.00;95929.06;1018412;29;20027;-71
2023/05/06 01:56:35;;;;;;;11.93;7.43;;;;;;;11.14;100.00;95926.72;1022368;28;20039;-71
2023/05/06 01:57:06;;;;;;;10.77;7.10;;;;;;;11.13;100.00;95924.31;1026041;28;20042;-71
2023/05/06 01:57:36;;;;;;;10.50;7.95;;;;;;;11.11;100.00;95927.22;1028976;28;20210;-73
2023/05/06 01:58:07;;;;;;;10.63;6.65;;;;;;;11.09;100.00;95930.09;1030103;28;20049;-70
2023/05/06 01:58:37;;;;;;;12.93;7.78;;;;;;;11.07;100.00;95926.97;1033665;28;20034;-71
2023/05/06 01:59:08;;;;;;;11.43;7.28;;;;;;;11.03;100.00;95920.66;1025929;28;20031;-72
2023/05/06 01:59:38;;;;;;;10.85;7.38;;;;;;;11.05;100.00;95923.00;1018087;29;20031;-71
2023/05/06 02:00:09;;;;;;;9.63;7.57;;;;;;;11.05;100.00;95931.69;1018152;29;20390;-72
2023/05/06 02:00:39;;;;;;;9.43;7.53;;;;;;;11.04;100.00;95932.72;1018013;29;20035;-71
2023/05/06 02:01:10;;;;;;;11.98;7.60;;;;;;;11.01;100.00;95930.63;1018411;29;20134;-71
2023/05/06 02:01:40;;;;;;;9.73;7.53;;;;;;;10.99;100.00;95931.94;1022332;28;20850;-72
2023/05/06 02:02:11;;;;;;;11.55;7.35;;;;;;;10.94;100.00;95926.69;1030187;28;20763;-71
2023/05/06 02:02:41;;;;;;;15.93;7.35;;;;;;;10.96;100.00;95935.06;1028881;28;20137;-71
2023/05/06 02:03:11;;;;;;;11.85;7.50;;;;;;;10.97;100.00;95926.16;1022233;29;20042;-71
2023/05/06 02:03:42;;;;;;;10.63;6.88;;;;;;;10.95;100.00;95936.13;1018268;29;20032;-72
2023/05/06 02:04:13;;;;;;;9.77;7.25;;;;;;;10.91;100.00;95927.97;1017938;28;20052;-71
2023/05/06 02:04:44;;;;;;;9.55;7.43;;;;;;;10.94;100.00;95932.72;1021808;28;20023;-69
2023/05/06 02:05:14;;;;;;;13.57;7.88;;;;;;;10.92;100.00;95934.00;1022359;28;20035;-71
2023/05/06 02:05:45;;;;;;;10.38;8.05;;;;;;;10.92;100.00;95934.00;1021839;29;20035;-71
2023/05/06 02:06:15;;;;;;;10.20;6.90;;;;;;;10.90;100.00;95930.84;1018394;28;20316;-71
2023/05/06 02:06:46;;;;;;;10.75;7.40;;;;;;;10.90;100.00;95936.91;1026103;28;20130;-71
2023/05/06 02:07:16;;;;;;;12.98;7.78;;;;;;;10.89;100.00;95932.69;1026261;28;20035;-71
2023/05/06 02:07:47;;;;;;;10.75;7.15;;;;;;;10.88;100.00;95935.59;1030033;28;20034;-72
2023/05/06 02:08:17;;;;;;;9.85;7.50;;;;;;;10.86;100.00;95930.59;1033964;28;20053;-71
2023/05/06 02:08:48;;;;;;;10.18;7.47;;;;;;;10.88;100.00;95941.63;1033615;28;20036;-72
2023/05/06 02:09:18;;;;;;;11.50;7.65;;;;;;;10.83;100.00;95931.09;1029875;28;20589;-72
2023/05/06 02:09:48;;;;;;;10.85;8.35;;;;;;;10.84;100.00;95932.69;1026129;28;20035;-71
2023/05/06 02:10:19;;;;;;;9.65;7.60;;;;;;;10.81;100.00;95933.22;1029902;28;20070;-72
2023/05/06 02:10:50;;;;;;;10.38;8.18;;;;;;;10.83;100.00;95941.59;1025517;28;20030;-73
2023/05/06 02:11:20;;;;;;;10.90;7.95;;;;;;;10.81;100.00;95936.63;1026182;28;20099;-72
2023/05/06 02:11:51;;;;;;;18.48;8.13;;;;;;;10.80;100.00;95929.81;1027092;28;20030;-72
2023/05/06 02:12:21;;;;;;;16.17;8.50;;;;;;;10.84;100.00;95932.69;1022127;28;20090;-70
2023/05/06 02:12:52;;;;;;;12.95;8.38;;;;;;;10.82;100.00;95938.19;1023273;28;20035;-71
2023/05/06 02:13:22;;;;;;;11.52;8.63;;;;;;;10.81;100.00;95935.84;1026064;28;20041;-71
2023/05/06 02:13:53;;;;;;;11.55;8.13;;;;;;;10.78;100.00;95933.72;1029814;28;20546;-71
2023/05/06 02:14:24;;;;;;;14.55;8.55;;;;;;;10.80;100.00;95942.13;1027250;28;20683;-72
2023/05/06 02:14:55;;;;;;;14.05;8.73;;;;;;;10.78;100.00;95928.47;1025887;28;20278;-70
2023/05/06 02:15:25;;;;;;;16.27;9.20;;;;;;;10.82;100.00;95940.03;1025873;28;20026;-69
2023/05/06 02:15:56;;;;;;;11.77;9.30;;;;;;;10.82;100.00;95943.44;1025698;28;20266;-71
2023/05/06 02:16:27;;;;;;;17.67;10.30;;;;;;;10.80;100.00;95937.66;1022670;28;20031;-71
2023/05/06 02:17:01;;;;;;;13.32;9.70;;;;;;;10.82;100.00;95937.41;1026131;28;20034;-71
2023/05/06 02:17:34;;;;;;;14.85;9.57;;;;;;;10.82;100.00;95942.66;1030738;28;20983;-71
2023/05/06 02:18:05;;;;;;;13.00;9.00;;;;;;;10.81;100.00;95939.25;1026344;28;20688;-71
2023/05/06 02:18:35;;;;;;;13.73;8.82;;;;;;;10.81;100.00;95941.09;1022222;28;20442;-70
2023/05/06 02:19:06;;;;;;;15.10;8.85;;;;;;;10.81;100.00;95941.88;1022853;28;20039;-71
2023/05/06 02:19:36;;;;;;;17.40;9.93;;;;;;;10.82;100.00;95940.03;1022158;28;20030;-71
2023/05/06 02:20:08;;;;;;;11.98;9.43;;;;;;;10.82;100.00;95947.91;1018187;29;20043;-72
2023/05/06 02:20:39;;;;;;;16.10;9.93;;;;;;;10.81;100.00;95943.72;1021938;29;20118;-71
2023/05/06 02:21:09;;;;;;;13.70;9.43;;;;;;;10.81;100.00;95943.72;1021733;29;20267;-71
2023/05/06 02:21:40;;;;;;;12.52;8.73;;;;;;;10.82;100.00;95945.28;1019077;28;20031;-71
2023/05/06 02:22:10;;;;;;;16.10;9.93;;;;;;;10.82;100.00;95950.53;1018525;29;20038;-70
2023/05/06 02:22:41;;;;;;;13.95;10.23;;;;;;;10.80;100.00;95948.16;1021683;28;20039;-70
2023/05/06 02:23:12;;;;;;;14.30;9.43;;;;;;;10.79;100.00;95949.19;1030252;28;20022;-71
2023/05/06 02:23:42;;;;;;;14.70;10.73;;;;;;;10.79;100.00;95948.41;1034905;28;20022;-71
2023/05/06 02:24:12;;;;;;;14.63;10.05;;;;;;;10.78;100.00;95960.75;1030703;28;20030;-73
2023/05/06 02:24:43;;;;;;;13.30;10.02;;;;;;;10.79;100.00;95954.44;1025730;28;20062;-72
2023/05/06 02:25:14;;;;;;;16.50;9.93;;;;;;;10.78;100.00;95954.72;1018407;29;20012;-71
2023/05/06 02:25:45;;;;;;;15.88;9.73;;;;;;;10.76;100.00;95954.97;1018572;29;20099;-71
2023/05/06 02:26:15;;;;;;;15.18;10.32;;;;;;;10.74;100.00;95953.66;1022791;28;20049;-71
2023/05/06 02:26:46;;;;;;;16.77;9.73;;;;;;;10.74;100.00;95951.03;1027019;28;20261;-72
2023/05/06 02:27:16;;;;;;;12.90;9.32;;;;;;;10.76;100.00;95962.06;1030841;28;20689;-71
2023/05/06 02:27:47;;;;;;;15.88;9.48;;;;;;;10.74;100.00;95954.44;1034761;28;20022;-70